Sand Spring Valley, Nevada Weather observations

Data are for 10 minute period ending at time listed.
 Day   Time   Solar   Ave.   Ave.  Ave.  Vector  Max.   Baro.   Total    
  of    of     Rad.   Air    Rel.  Wind   Wind   Wind  Press.  Precip.   
Year   Day            Temp.  Hum.  Speed  Dir.   Gust                    
2015   (PST)  Kw/m2    F      %     mph   deg.    mph    mb.     in.     
-------------------------------------------------------------------------
 209    0:00   0.00   56.2    45    2.0   103     5.3   853.3    0.00 
 209    0:10   0.00   54.1    56    0.3   132     1.3   853.3    0.00 
 209    0:20   0.00   52.4    64    0.0     0     0.0   853.4    0.00 
 209    0:30   0.00   50.7    67    0.8   154     3.8   853.4    0.00 
 209    0:40   0.00   50.5    62    3.2   177     4.8   853.4    0.00 
 209    0:50   0.00   50.4    66    3.1   194     4.5   853.4    0.00 
 209    1:00   0.00   49.9    67    2.6   199     3.7   853.4    0.00 
 209    1:10   0.00   50.3    68    2.5   200     4.5   853.4    0.00 
 209    1:20   0.00   50.0    66    2.4   198     3.4   853.5    0.00 
 209    1:30   0.00   50.7    59    1.8   215     3.1   853.5    0.00 
 209    1:40   0.00   50.8    60    1.3   215     2.6   853.5    0.00 
 209    1:50   0.00   50.0    64    3.1   204     4.5   853.6    0.00 
 209    2:00   0.00   49.6    63    2.4   194     3.8   853.6    0.00 
 209    2:10   0.00   49.5    68    1.8   210     4.4   853.7    0.00 
 209    2:20   0.00   49.2    64    0.8   188     3.3   853.8    0.00 
 209    2:30   0.00   51.2    58    3.1   195     4.7   853.9    0.00 
 209    2:40   0.00   48.8    68    2.6   199     4.0   854.0    0.00 
 209    2:50   0.00   47.5    69    3.1   198     4.4   854.0    0.00 
 209    3:00   0.00   47.2    67    2.4   218     3.2   854.2    0.00 
 209    3:10   0.00   47.3    67    2.3   216     3.1   854.2    0.00 
 209    3:20   0.00   47.3    72    1.9   219     3.4   854.3    0.00 
 209    3:30   0.00   47.3    68    3.4   185     4.4   854.3    0.00 
 209    3:40   0.00   47.2    69    2.8   217     4.5   854.4    0.00 
 209    3:50   0.00   46.9    68    3.2   196     5.0   854.5    0.00 
 209    4:00   0.00   45.9    70    2.8   197     4.0   854.6    0.00 
 209    4:10   0.00   45.7    71    2.4   189     4.2   854.7    0.00 
 209    4:20   0.00   45.0    73    4.1   227     7.0   854.7    0.00 
 209    4:30   0.00   45.5    62    4.0   243     6.3   854.8    0.00 
 209    4:40   0.00   46.4    61    5.2   252     7.2   854.9    0.00 
 209    4:50   0.00   46.8    59    2.5   219     6.5   855.1    0.00 
 209    5:00   0.00   49.2    55    2.2   229     5.3   855.2    0.00 
 209    5:10   0.00   49.1    57    1.1   211     3.7   855.3    0.00 
 209    5:20   0.00   51.5    58    0.9    99     2.3   855.2    0.00 
 209    5:30   0.00   53.7    51    1.5   211     4.8   855.3    0.00 
 209    5:40   0.00   54.2    56    0.1   148     1.7   855.4    0.00 
 209    5:50   0.00   55.4    57    0.5   148     2.1   855.4    0.00 
 209    6:00   0.00   57.8    53    0.2   160     1.3   855.5    0.00 
 209    6:10   0.00   60.8    40    3.7   332     6.3   855.5    0.00 
 209    6:20   0.00   62.1    43    3.6   326     5.4   855.6    0.00 
 209    6:30   0.00   63.8    35    5.0   340     6.9   855.8    0.00 
 209    6:40   0.00   65.9    32    3.6   325     6.1   856.0    0.00 
 209    6:50   0.00   65.9    38    3.7   318     6.1   856.1    0.00 
 209    7:00   0.00   66.7    47    2.6   306     3.8   856.2    0.00 
 209    7:10   0.00   67.9    33    3.0   299     5.6   856.3    0.00 
 209    7:20   0.00   69.0    28    2.8   329     6.4   856.4    0.00 
 209    7:30   0.00   70.6    28    1.4   322     4.5   856.5    0.00 
 209    7:40   0.00   71.6    28    1.4   332     6.7   856.5    0.00 
 209    7:50   0.00   71.8    25    4.7    55    12.1   856.4    0.00 
 209    8:00   0.00   72.0    26    5.4    54     9.9   856.4    0.00 
 209    8:10   0.00   72.2    25    6.0    48    11.4   856.4    0.00 
 209    8:20   0.00   72.7    25    6.1    50    11.8   856.4    0.00 
 209    8:30   0.00   73.1    24    5.4    51     9.2   856.3    0.00 
 209    8:40   0.00   73.7    24    5.7    47    11.6   856.3    0.00 
 209    8:50   0.00   74.3    21    5.6    34    11.8   856.3    0.00 
 209    9:00   0.00   75.0    22    6.8    42    13.4   856.2    0.00 
 209    9:10   0.00   75.5    21    6.1    32    12.1   856.2    0.00 
 209    9:20   0.00   76.4    20    7.2    25    13.5   856.2    0.00 
 209    9:30   0.00   76.8    19    7.2    22    13.0   856.2    0.00 
 209    9:40   0.00   77.0    21    6.4    33    13.0   856.2    0.00 
 209    9:50   0.00   77.9    18    7.2    22    13.7   856.1    0.00 
 209   10:00   0.00   77.2    23    6.8    49    14.5   856.1    0.00 
 209   10:10   0.00   78.3    20    6.2    31    10.7   856.1    0.00 
 209   10:20   0.00   79.2    21    5.4    38    11.2   856.0    0.00 
 209   10:30   0.00   79.4    20    6.4    34    13.0   855.9    0.00 
 209   10:40   0.00   80.3    19    6.3    28    11.7   855.8    0.00 
 209   10:50   0.00   80.5    18    5.2    10     9.9   855.7    0.00 
 209   11:00   0.00   81.0    17    5.2    30    10.7   855.7    0.00 
 209   11:10   0.00   81.0    19    6.6    33    11.2   855.6    0.00 
 209   11:20   0.00   81.6    18    3.7    46     9.3   855.5    0.00 
 209   11:30   0.00   81.9    21    3.9    54     9.2   855.5    0.00 
 209   11:40   0.00   82.3    18    2.8    50     8.5   855.4    0.00 
 209   11:50   0.00   82.3    21    3.0   111     6.1   855.3    0.00 
 209   12:00   0.00   83.5    16    2.5   212     4.2   855.2    0.00 
 209   12:10   0.00   83.9    16    2.4   303     7.1   855.2    0.00 
 209   12:20   0.00   83.5    18    5.3   328     9.6   855.0    0.00 
 209   12:30   0.00   82.3    21    3.7   305     7.3   854.9    0.00 
 209   12:40   0.00   83.6    19    4.7   351     9.2   854.8    0.00 
 209   12:50   0.00   85.5    14    2.8   246     7.5   854.6    0.00 
 209   13:00   0.00   84.4    18    3.4   217     9.9   854.5    0.00 
 209   13:10   0.00   84.6    17    4.7    54    13.7   854.4    0.00 
 209   13:20   0.00   85.6    16    2.9   250     8.1   854.3    0.00 
 209   13:30   0.00   84.8    17    5.9   318    14.4   854.1    0.00 
 209   13:40   0.00   83.5    17    4.5   297    10.4   853.9    0.00 
 209   13:50   0.00   86.3    14    2.7   345     6.3   853.9    0.00 
 209   14:00   0.00   85.2    17    6.0   322    14.5   853.8    0.00 
 209   14:10   0.00   84.5    18    7.6   324    13.4   853.7    0.00 
 209   14:20   0.00   83.8    21    5.8   303    12.2   853.6    0.00 
 209   14:30   0.00   85.8    18    2.8   276     8.7   853.5    0.00 
 209   14:40   0.00   84.2    23    6.3   314     9.7   853.4    0.00 
 209   14:50   0.00   84.7    21    5.5   295     9.1   853.3    0.00 
 209   15:00   0.00   84.6    17    5.5   309    11.1   853.2    0.00 
 209   15:10   0.00   85.6    15    3.5   303     9.1   853.2    0.00 
 209   15:20   0.00   86.0    18    3.9   276     6.5   853.1    0.00 
 209   15:30   0.00   85.4    21    3.2   297     5.8   853.0    0.00 
 209   15:40   0.00   84.7    25    4.2   308     6.4   852.9    0.00 
 209   15:50   0.00   85.3    19    3.0   302     6.5   852.9    0.00 
 209   16:00   0.00   87.4    15    1.8   308     4.7   852.9    0.00 
 209   16:10   0.00   87.7    17    2.2   265     5.2   852.9    0.00 
 209   16:20   0.00   85.8    16    3.0   348     7.1   852.8    0.00 
 209   16:30   0.00   85.9    20    4.2   320     8.0   852.8    0.00 
 209   16:40   0.00   85.8    17    4.7   326     8.7   852.8    0.00 
 209   16:50   0.00   85.6    16    5.2   351     8.8   852.8    0.00 
 209   17:00   0.00   84.7    20    5.6   326    10.2   852.7    0.00 
 209   17:10   0.00   83.0    19    4.2   320     8.1   852.8    0.00 
 209   17:20   0.00   85.3    18    3.0    46     5.0   852.7    0.00 
 209   17:30   0.00   84.4    16    3.0    58     4.6   852.8    0.00 
 209   17:40   0.00   86.3    17    0.6    10     2.7   852.8    0.00 
 209   17:50   0.00   87.8    22    0.2   339     1.5   852.9    0.00 
 209   18:00   0.00   88.3    22    0.0     0     0.0   852.9    0.00 
 209   18:10   0.00   87.6    24    0.5     6     1.4   852.9    0.00 
 209   18:20   0.00   85.5    24    0.6    11     3.0   853.0    0.00 
 209   18:30   0.00   82.4    18    1.8    34     3.4   853.0    0.00 
 209   18:40   0.00   79.6    23    3.0    41     3.7   853.1    0.00 
 209   18:50   0.00   77.8    21    2.6    38     3.5   853.3    0.00 

Return to Sand Spring Valley graphs page.


Western Regional Climate Center,wrcc@dri.edu